Time;durP1;ratioP1;P1;durP2;ratioP2;P2;SDS_P1;SDS_P2;PMS_P1;PMS_P2;Temp;Humidity;BMP_temperature;BMP_pressure;BME280_temperature;BME280_humidity;BME280_pressure;Samples;Min_cycle;Max_cycle;Signal;HPM_P1;HPM_P2
2023/09/01 00:00:09;;;;;;;5.45;4.30;;;;;;;;;;6219483;23;20511;-84
2023/09/01 00:02:35;;;;;;;8.32;4.40;;;;;;;;;;6202822;23;20025;-84
2023/09/01 00:05:02;;;;;;;5.82;4.60;;;;;;;;;;6203565;23;20098;-84
2023/09/01 00:07:29;;;;;;;6.28;4.35;;;;;;;;;;6223626;23;20064;-83
2023/09/01 00:09:55;;;;;;;5.95;4.00;;;;;;;;;;6218707;23;20017;-83
2023/09/01 00:12:21;;;;;;;7.47;4.47;;;;;;;;;;6218548;23;20015;-83
2023/09/01 00:14:47;;;;;;;6.38;4.55;;;;;;;;;;6191061;23;20100;-84
2023/09/01 00:17:14;;;;;;;5.93;4.10;;;;;;;;;;6215719;23;20024;-84
2023/09/01 00:19:40;;;;;;;6.97;4.70;;;;;;;;;;6216113;23;20021;-84
2023/09/01 00:22:07;;;;;;;6.40;4.78;;;;;;;;;;6190365;23;20020;-83
2023/09/01 00:24:33;;;;;;;10.15;4.30;;;;;;;;;;6216660;23;20020;-83
2023/09/01 00:26:59;;;;;;;6.47;4.65;;;;;;;;;;6215376;23;20020;-84
2023/09/01 00:29:25;;;;;;;8.35;4.40;;;;;;;;;;6216504;23;20068;-84
2023/09/01 00:31:51;;;;;;;8.88;5.28;;;;;;;;;;6214582;23;20020;-84
2023/09/01 00:34:18;;;;;;;8.75;4.40;;;;;;;;;;6190056;23;20437;-84
2023/09/01 00:36:44;;;;;;;5.40;4.32;;;;;;;;;;6215182;23;20465;-83
2023/09/01 00:39:10;;;;;;;7.10;4.40;;;;;;;;;;6216027;23;20028;-83
2023/09/01 00:41:37;;;;;;;8.48;4.78;;;;;;;;;;6215162;23;20067;-83
2023/09/01 00:44:03;;;;;;;8.13;4.88;;;;;;;;;;6215091;23;20012;-83
2023/09/01 00:46:31;;;;;;;12.30;4.55;;;;;;;;;;6215009;23;20094;-83
2023/09/01 00:48:58;;;;;;;6.60;4.25;;;;;;;;;;6217026;23;20017;-83
2023/09/01 00:51:25;;;;;;;6.35;4.10;;;;;;;;;;6214582;23;20017;-84
2023/09/01 00:53:51;;;;;;;5.47;4.00;;;;;;;;;;6214790;23;20021;-83
2023/09/01 00:56:19;;;;;;;7.40;3.90;;;;;;;;;;6215073;23;20071;-84
2023/09/01 00:58:45;;;;;;;6.65;4.38;;;;;;;;;;6189777;23;20112;-83
2023/09/01 01:01:12;;;;;;;5.93;3.90;;;;;;;;;;6216369;23;20013;-84
2023/09/01 01:03:38;;;;;;;4.88;3.85;;;;;;;;;;6189387;23;20023;-84
2023/09/01 01:06:23;;;;;;;6.90;3.90;;;;;;;;;;6189253;23;20016;-83
2023/09/01 01:08:58;;;;;;;5.32;3.58;;;;;;;;;;6189096;23;20020;-83
2023/09/01 01:11:31;;;;;;;4.43;3.35;;;;;;;;;;6214353;23;20406;-83
2023/09/01 01:14:00;;;;;;;7.25;4.40;;;;;;;;;;6189097;23;20017;-84
2023/09/01 01:16:28;;;;;;;7.72;4.78;;;;;;;;;;6188911;23;20032;-83
2023/09/01 01:18:54;;;;;;;9.55;4.85;;;;;;;;;;6214488;23;20020;-84
2023/09/01 01:21:26;;;;;;;7.00;4.60;;;;;;;;;;6214235;23;20028;-83
2023/09/01 01:23:53;;;;;;;11.80;5.05;;;;;;;;;;6216060;23;20051;-83
2023/09/01 01:26:19;;;;;;;7.95;4.35;;;;;;;;;;6215854;23;20470;-83
2023/09/01 01:28:46;;;;;;;7.55;4.60;;;;;;;;;;6214827;23;20019;-84
2023/09/01 01:31:13;;;;;;;8.13;4.70;;;;;;;;;;6189522;23;20017;-84
2023/09/01 01:33:54;;;;;;;10.90;5.85;;;;;;;;;;6189701;23;20021;-84
2023/09/01 01:36:27;;;;;;;6.72;4.50;;;;;;;;;;6214308;23;20028;-84
2023/09/01 01:38:58;;;;;;;6.30;4.80;;;;;;;;;;6189444;23;20092;-84
2023/09/01 01:41:54;;;;;;;6.57;5.03;;;;;;;;;;6216499;23;20031;-84
2023/09/01 01:44:27;;;;;;;7.90;4.93;;;;;;;;;;6218039;23;20024;-84
2023/09/01 01:46:54;;;;;;;7.07;5.22;;;;;;;;;;6227915;23;20068;-84
2023/09/01 01:49:20;;;;;;;8.13;5.22;;;;;;;;;;6227363;23;20329;-84
2023/09/01 01:51:46;;;;;;;6.43;4.95;;;;;;;;;;6214715;23;20016;-84
2023/09/01 01:54:12;;;;;;;8.88;5.38;;;;;;;;;;6216263;23;20012;-84
2023/09/01 01:56:38;;;;;;;8.38;5.07;;;;;;;;;;6214249;23;20021;-84
2023/09/01 01:59:04;;;;;;;7.90;4.95;;;;;;;;;;6189005;23;20027;-84
2023/09/01 02:01:31;;;;;;;7.40;5.13;;;;;;;;;;6215925;23;20016;-84
2023/09/01 02:03:57;;;;;;;6.88;5.38;;;;;;;;;;6216021;23;20016;-84
2023/09/01 02:06:24;;;;;;;7.75;5.15;;;;;;;;;;6214891;23;20021;-84
2023/09/01 02:08:50;;;;;;;7.07;5.22;;;;;;;;;;6214387;23;20044;-84
2023/09/01 02:11:16;;;;;;;7.78;5.05;;;;;;;;;;6221348;23;20012;-84
2023/09/01 02:13:42;;;;;;;8.43;5.25;;;;;;;;;;6219656;23;20016;-84
2023/09/01 02:16:08;;;;;;;7.32;5.00;;;;;;;;;;6217279;23;20013;-84
2023/09/01 02:18:35;;;;;;;9.57;5.20;;;;;;;;;;6214409;23;20099;-84
2023/09/01 02:21:01;;;;;;;7.90;5.20;;;;;;;;;;6215857;23;20017;-84
2023/09/01 02:23:27;;;;;;;8.50;5.60;;;;;;;;;;6214517;23;20013;-84
2023/09/01 02:25:54;;;;;;;9.93;5.30;;;;;;;;;;6215666;23;20096;-84
2023/09/01 02:28:20;;;;;;;7.88;5.35;;;;;;;;;;6215928;23;20056;-84
2023/09/01 02:30:46;;;;;;;12.48;5.75;;;;;;;;;;6216065;23;20016;-84
2023/09/01 02:33:12;;;;;;;7.30;5.47;;;;;;;;;;6214082;23;20044;-84
2023/09/01 02:35:45;;;;;;;8.70;5.35;;;;;;;;;;6213623;23;20021;-84
2023/09/01 02:38:12;;;;;;;9.23;5.35;;;;;;;;;;6213934;23;20051;-85
2023/09/01 02:40:39;;;;;;;7.20;4.80;;;;;;;;;;6215257;23;20016;-84
2023/09/01 02:43:05;;;;;;;8.73;5.30;;;;;;;;;;6215751;23;20047;-84
2023/09/01 02:45:32;;;;;;;8.38;5.10;;;;;;;;;;6188988;23;20055;-84
2023/09/01 02:47:58;;;;;;;7.07;4.88;;;;;;;;;;6190250;23;20024;-84
2023/09/01 02:50:24;;;;;;;7.15;5.10;;;;;;;;;;6190374;23;20285;-84
2023/09/01 02:52:50;;;;;;;8.88;5.18;;;;;;;;;;6190770;23;20436;-84
2023/09/01 02:55:17;;;;;;;10.10;5.20;;;;;;;;;;6217164;23;20028;-84
2023/09/01 02:57:44;;;;;;;7.43;5.00;;;;;;;;;;6215360;23;20024;-85
2023/09/01 03:00:21;;;;;;;7.97;5.25;;;;;;;;;;6215383;23;20025;-84
2023/09/01 03:02:48;;;;;;;6.28;5.00;;;;;;;;;;6191392;23;20017;-85
2023/09/01 03:05:14;;;;;;;6.57;4.53;;;;;;;;;;6217970;23;20024;-85
2023/09/01 03:07:41;;;;;;;5.93;4.60;;;;;;;;;;6216377;23;20078;-84
2023/09/01 03:10:08;;;;;;;6.25;5.18;;;;;;;;;;6190287;23;20016;-85
2023/09/01 03:12:38;;;;;;;7.80;5.10;;;;;;;;;;6190241;23;20075;-84
2023/09/01 03:15:05;;;;;;;7.90;4.78;;;;;;;;;;6217096;23;20409;-84
2023/09/01 03:17:31;;;;;;;7.78;4.28;;;;;;;;;;6214986;23;20044;-84
2023/09/01 03:19:57;;;;;;;7.35;4.80;;;;;;;;;;6215738;23;20052;-84
2023/09/01 03:22:23;;;;;;;7.65;4.55;;;;;;;;;;6190439;23;20348;-84
2023/09/01 03:24:51;;;;;;;6.93;4.72;;;;;;;;;;6214137;23;20020;-85
2023/09/01 03:27:17;;;;;;;7.47;4.75;;;;;;;;;;6224083;23;20051;-84
2023/09/01 03:29:43;;;;;;;7.75;5.03;;;;;;;;;;6232613;23;20016;-84
2023/09/01 03:32:10;;;;;;;7.32;5.20;;;;;;;;;;6231490;23;20017;-84
2023/09/01 03:34:38;;;;;;;8.50;5.03;;;;;;;;;;6196608;23;20456;-84
2023/09/01 03:37:04;;;;;;;7.20;5.10;;;;;;;;;;6219998;23;20021;-84
2023/09/01 03:39:30;;;;;;;5.95;4.45;;;;;;;;;;6216206;23;20023;-83
2023/09/01 03:41:56;;;;;;;7.57;4.63;;;;;;;;;;6215779;23;20079;-84
2023/09/01 03:44:22;;;;;;;6.20;4.68;;;;;;;;;;6217203;23;20022;-84
2023/09/01 03:46:48;;;;;;;12.10;5.72;;;;;;;;;;6217675;23;20075;-85
2023/09/01 03:49:14;;;;;;;7.30;4.40;;;;;;;;;;6215655;23;20024;-84
2023/09/01 03:51:41;;;;;;;5.72;4.70;;;;;;;;;;6215657;23;20035;-85
2023/09/01 03:54:07;;;;;;;8.05;5.30;;;;;;;;;;6214910;23;20029;-84
2023/09/01 03:56:33;;;;;;;7.45;4.75;;;;;;;;;;6216582;23;20074;-84
2023/09/01 03:58:59;;;;;;;7.65;5.05;;;;;;;;;;6215362;23;20087;-84
2023/09/01 04:01:25;;;;;;;7.72;4.97;;;;;;;;;;6214808;23;20079;-85
2023/09/01 04:03:51;;;;;;;8.50;5.45;;;;;;;;;;6215407;23;20017;-84
2023/09/01 04:06:17;;;;;;;9.38;5.85;;;;;;;;;;6216330;23;20024;-84
2023/09/01 04:08:43;;;;;;;8.48;5.18;;;;;;;;;;6214439;23;20013;-85
2023/09/01 04:11:12;;;;;;;8.25;5.72;;;;;;;;;;6214611;23;20020;-84
2023/09/01 04:13:38;;;;;;;7.25;5.22;;;;;;;;;;6214806;23;20028;-84
2023/09/01 04:16:04;;;;;;;9.50;5.10;;;;;;;;;;6226600;23;20016;-84
2023/09/01 04:18:32;;;;;;;6.55;4.60;;;;;;;;;;6205218;23;20443;-84
2023/09/01 04:20:58;;;;;;;8.55;5.53;;;;;;;;;;6220190;23;20016;-84
2023/09/01 04:23:24;;;;;;;6.88;5.10;;;;;;;;;;6191944;23;20024;-84
2023/09/01 04:25:50;;;;;;;7.07;5.20;;;;;;;;;;6217596;23;20051;-85
2023/09/01 04:28:16;;;;;;;8.52;5.32;;;;;;;;;;6214906;23;20017;-83
2023/09/01 04:30:43;;;;;;;7.13;5.50;;;;;;;;;;6216430;23;20020;-84
2023/09/01 04:33:09;;;;;;;9.07;5.18;;;;;;;;;;6216240;23;20013;-84
2023/09/01 04:35:35;;;;;;;7.63;5.47;;;;;;;;;;6214161;23;20337;-84
2023/09/01 04:38:02;;;;;;;8.70;5.55;;;;;;;;;;6215915;23;20017;-84
2023/09/01 04:40:28;;;;;;;8.40;5.40;;;;;;;;;;6215329;23;20017;-84
2023/09/01 04:42:55;;;;;;;7.80;5.10;;;;;;;;;;6215481;23;20023;-84
2023/09/01 04:45:22;;;;;;;7.80;5.35;;;;;;;;;;6214256;23;20063;-84
2023/09/01 04:47:49;;;;;;;7.43;5.43;;;;;;;;;;6188947;23;20100;-84
2023/09/01 04:50:15;;;;;;;6.88;4.72;;;;;;;;;;6215451;23;20016;-84
2023/09/01 04:52:41;;;;;;;8.32;5.30;;;;;;;;;;6215475;23;20031;-84
2023/09/01 04:55:08;;;;;;;7.43;5.25;;;;;;;;;;6214256;23;20020;-84
2023/09/01 04:57:34;;;;;;;9.60;5.68;;;;;;;;;;6213514;23;20040;-84
2023/09/01 05:00:01;;;;;;;7.72;5.57;;;;;;;;;;6215324;23;20020;-84
2023/09/01 05:02:28;;;;;;;9.55;5.75;;;;;;;;;;6214099;23;20024;-84
2023/09/01 05:04:54;;;;;;;9.32;5.93;;;;;;;;;;6213964;23;20392;-84
2023/09/01 05:07:20;;;;;;;10.80;6.07;;;;;;;;;;6189040;23;20052;-84
2023/09/01 05:09:46;;;;;;;11.40;6.28;;;;;;;;;;6214836;23;20016;-84
2023/09/01 05:12:12;;;;;;;10.73;6.20;;;;;;;;;;6231438;23;20301;-84
2023/09/01 05:14:38;;;;;;;7.63;5.72;;;;;;;;;;6229596;23;20027;-84
2023/09/01 05:17:04;;;;;;;8.60;6.10;;;;;;;;;;6218656;23;20016;-85
2023/09/01 05:19:31;;;;;;;8.60;5.47;;;;;;;;;;6215310;23;20052;-84
2023/09/01 05:21:57;;;;;;;8.75;5.43;;;;;;;;;;6217812;23;20017;-84
2023/09/01 05:24:23;;;;;;;8.23;5.63;;;;;;;;;;6191332;23;20013;-85
2023/09/01 05:26:49;;;;;;;7.75;5.72;;;;;;;;;;6191247;23;20095;-84
2023/09/01 05:29:15;;;;;;;9.32;5.65;;;;;;;;;;6190942;23;20020;-85
2023/09/01 05:31:41;;;;;;;8.60;5.63;;;;;;;;;;6216161;23;20075;-85
2023/09/01 05:34:07;;;;;;;10.63;5.40;;;;;;;;;;6215849;23;20040;-85
2023/09/01 05:36:36;;;;;;;6.75;4.90;;;;;;;;;;6216587;23;20463;-85
2023/09/01 05:39:03;;;;;;;9.43;5.65;;;;;;;;;;6215712;23;20017;-85
2023/09/01 05:41:30;;;;;;;8.07;4.82;;;;;;;;;;6190679;23;20027;-85
2023/09/01 05:43:56;;;;;;;9.48;5.90;;;;;;;;;;6215460;23;20097;-85
2023/09/01 05:46:22;;;;;;;7.50;4.68;;;;;;;;;;6218901;23;20021;-83
2023/09/01 05:48:48;;;;;;;9.35;4.95;;;;;;;;;;6222348;23;20021;-83
2023/09/01 05:51:14;;;;;;;8.15;5.18;;;;;;;;;;6193980;23;20021;-84
2023/09/01 05:53:40;;;;;;;7.05;4.40;;;;;;;;;;6216418;23;20024;-84
2023/09/01 05:56:06;;;;;;;6.53;4.72;;;;;;;;;;6189864;23;20096;-83
2023/09/01 05:58:33;;;;;;;7.60;4.65;;;;;;;;;;6214977;23;20361;-84
2023/09/01 06:01:00;;;;;;;6.18;4.55;;;;;;;;;;6216131;23;20084;-84
2023/09/01 06:03:26;;;;;;;7.35;4.68;;;;;;;;;;6216045;23;20020;-84
2023/09/01 06:05:52;;;;;;;6.75;4.78;;;;;;;;;;6215183;23;20415;-84
2023/09/01 06:08:19;;;;;;;6.22;4.20;;;;;;;;;;6215949;23;20110;-83
2023/09/01 06:10:45;;;;;;;8.48;4.00;;;;;;;;;;6215336;23;20027;-83
2023/09/01 06:13:11;;;;;;;6.60;4.35;;;;;;;;;;6214160;23;20020;-83
2023/09/01 06:15:37;;;;;;;8.18;4.45;;;;;;;;;;6214403;23;20016;-84
2023/09/01 06:18:03;;;;;;;8.27;4.20;;;;;;;;;;6188355;23;20021;-84
2023/09/01 06:20:29;;;;;;;8.23;4.43;;;;;;;;;;6221534;23;20070;-84
2023/09/01 06:22:56;;;;;;;6.15;4.00;;;;;;;;;;6222227;23;20031;-84
2023/09/01 06:25:22;;;;;;;8.30;4.53;;;;;;;;;;6218085;23;20023;-84
2023/09/01 06:27:48;;;;;;;6.95;4.15;;;;;;;;;;6219959;23;20013;-83
2023/09/01 06:30:14;;;;;;;8.40;4.70;;;;;;;;;;6220608;23;20020;-83
2023/09/01 06:32:40;;;;;;;8.75;5.35;;;;;;;;;;6217116;23;20028;-85
2023/09/01 06:35:07;;;;;;;10.15;5.93;;;;;;;;;;6191244;23;20379;-84
2023/09/01 06:37:33;;;;;;;10.60;5.57;;;;;;;;;;6217700;23;20048;-85
2023/09/01 06:39:59;;;;;;;9.98;6.00;;;;;;;;;;6190056;23;20016;-85
2023/09/01 06:42:25;;;;;;;10.20;5.75;;;;;;;;;;6216300;23;20116;-84
2023/09/01 06:44:52;;;;;;;5.93;4.22;;;;;;;;;;6189265;23;20028;-84
2023/09/01 06:47:18;;;;;;;7.53;3.95;;;;;;;;;;6216074;23;20018;-84
2023/09/01 06:49:44;;;;;;;5.72;3.50;;;;;;;;;;6191192;23;20025;-83
2023/09/01 06:52:11;;;;;;;8.70;4.05;;;;;;;;;;6212134;23;20016;-85
2023/09/01 06:54:39;;;;;;;5.22;3.47;;;;;;;;;;6218921;23;20044;-83
2023/09/01 06:57:05;;;;;;;4.93;3.83;;;;;;;;;;6217238;23;20511;-83
2023/09/01 06:59:31;;;;;;;5.55;3.78;;;;;;;;;;6219460;23;20412;-84
2023/09/01 07:01:57;;;;;;;7.20;4.05;;;;;;;;;;6215083;23;20021;-84
2023/09/01 07:04:23;;;;;;;7.28;3.92;;;;;;;;;;6215302;23;20091;-84
2023/09/01 07:06:49;;;;;;;5.15;3.53;;;;;;;;;;6213825;23;20017;-84
2023/09/01 07:09:15;;;;;;;6.45;3.63;;;;;;;;;;6213536;23;20480;-84
2023/09/01 07:11:44;;;;;;;5.93;3.65;;;;;;;;;;6212774;23;20027;-84
2023/09/01 07:14:10;;;;;;;4.53;3.60;;;;;;;;;;6215844;23;20428;-84
2023/09/01 07:16:36;;;;;;;6.82;3.70;;;;;;;;;;6217109;23;20021;-84
2023/09/01 07:19:03;;;;;;;6.65;3.60;;;;;;;;;;6216495;23;20016;-84
2023/09/01 07:21:29;;;;;;;6.60;3.80;;;;;;;;;;6216161;23;20012;-85
2023/09/01 07:23:55;;;;;;;5.43;3.47;;;;;;;;;;6190780;23;20097;-84
2023/09/01 07:26:21;;;;;;;4.53;3.35;;;;;;;;;;6217999;23;20024;-84
2023/09/01 07:28:47;;;;;;;6.45;3.83;;;;;;;;;;6217765;23;20314;-84
2023/09/01 07:31:13;;;;;;;5.13;3.25;;;;;;;;;;6190346;23;20017;-84
2023/09/01 07:33:43;;;;;;;5.75;3.33;;;;;;;;;;6216906;23;20355;-84
2023/09/01 07:36:10;;;;;;;4.00;3.53;;;;;;;;;;6190967;23;20023;-84
2023/09/01 07:38:37;;;;;;;5.68;3.40;;;;;;;;;;6217220;23;20017;-83
2023/09/01 07:41:07;;;;;;;4.90;3.50;;;;;;;;;;6190079;23;20092;-83
2023/09/01 07:43:34;;;;;;;4.55;3.10;;;;;;;;;;6216214;23;20017;-84
2023/09/01 07:46:00;;;;;;;3.53;2.35;;;;;;;;;;6215161;23;20026;-84
2023/09/01 07:48:26;;;;;;;4.28;2.50;;;;;;;;;;6190180;23;20318;-83
2023/09/01 07:50:53;;;;;;;2.83;2.20;;;;;;;;;;6215686;23;20020;-83
2023/09/01 07:53:19;;;;;;;4.38;2.40;;;;;;;;;;6217011;23;20294;-84
2023/09/01 07:55:45;;;;;;;4.53;2.45;;;;;;;;;;6217555;23;20503;-84
2023/09/01 07:58:11;;;;;;;5.78;2.58;;;;;;;;;;6215462;23;20020;-84
2023/09/01 08:00:38;;;;;;;4.75;2.20;;;;;;;;;;6214183;23;20048;-84
2023/09/01 08:03:10;;;;;;;5.22;2.72;;;;;;;;;;6214116;23;20020;-85
2023/09/01 08:05:36;;;;;;;4.30;2.92;;;;;;;;;;6214969;23;20025;-83
2023/09/01 08:08:02;;;;;;;4.53;3.40;;;;;;;;;;6191284;23;20396;-83
2023/09/01 08:10:28;;;;;;;5.13;3.03;;;;;;;;;;6217459;23;20017;-83
2023/09/01 08:12:54;;;;;;;3.97;2.83;;;;;;;;;;6190089;23;20428;-83
2023/09/01 08:15:20;;;;;;;5.28;3.17;;;;;;;;;;6215522;23;20027;-84
2023/09/01 08:17:49;;;;;;;5.00;2.80;;;;;;;;;;6190019;23;20059;-83
2023/09/01 08:20:17;;;;;;;5.38;3.17;;;;;;;;;;6216763;23;20012;-83
2023/09/01 08:22:46;;;;;;;4.93;3.35;;;;;;;;;;6190461;23;20016;-83
2023/09/01 08:25:13;;;;;;;4.38;3.30;;;;;;;;;;6222536;23;20017;-83
2023/09/01 08:27:39;;;;;;;9.07;4.10;;;;;;;;;;6193994;23;20021;-83
2023/09/01 08:30:06;;;;;;;5.53;3.70;;;;;;;;;;6219236;23;20075;-83
2023/09/01 08:32:33;;;;;;;7.32;3.25;;;;;;;;;;6216040;23;20028;-83
2023/09/01 08:35:00;;;;;;;5.57;3.30;;;;;;;;;;6219451;23;20070;-82
2023/09/01 08:37:26;;;;;;;4.93;3.28;;;;;;;;;;6223047;23;20079;-83
2023/09/01 08:39:55;;;;;;;7.25;3.60;;;;;;;;;;6202898;23;20020;-83
2023/09/01 08:42:22;;;;;;;6.75;3.45;;;;;;;;;;6196935;23;20468;-84
2023/09/01 08:44:49;;;;;;;5.60;3.17;;;;;;;;;;6215131;23;20013;-83
2023/09/01 08:47:22;;;;;;;5.28;2.85;;;;;;;;;;6216660;23;20020;-84
2023/09/01 08:49:52;;;;;;;6.68;3.28;;;;;;;;;;6215622;23;20023;-84
2023/09/01 08:52:19;;;;;;;5.25;3.20;;;;;;;;;;6214155;23;20016;-84
2023/09/01 08:54:46;;;;;;;5.32;3.22;;;;;;;;;;6189515;23;20471;-84
2023/09/01 08:57:13;;;;;;;4.90;3.10;;;;;;;;;;6216501;23;20020;-83
2023/09/01 08:59:39;;;;;;;5.00;3.17;;;;;;;;;;6215195;23;20020;-84
2023/09/01 09:02:05;;;;;;;4.05;2.70;;;;;;;;;;6216142;23;20021;-84
2023/09/01 09:04:32;;;;;;;3.88;2.53;;;;;;;;;;6188956;23;20356;-84
2023/09/01 09:07:15;;;;;;;5.60;2.95;;;;;;;;;;6190746;23;20028;-83
2023/09/01 09:09:55;;;;;;;6.28;3.10;;;;;;;;;;6215288;23;20031;-83
2023/09/01 09:12:22;;;;;;;5.05;2.70;;;;;;;;;;6215074;23;20017;-84
2023/09/01 09:14:52;;;;;;;6.03;3.00;;;;;;;;;;6214556;23;20326;-84
2023/09/01 09:17:23;;;;;;;5.22;3.08;;;;;;;;;;6215272;23;20087;-84
2023/09/01 09:19:56;;;;;;;5.57;2.75;;;;;;;;;;6214951;23;20017;-83
2023/09/01 09:22:22;;;;;;;5.50;2.90;;;;;;;;;;6190193;23;20448;-83
2023/09/01 09:24:48;;;;;;;3.97;2.80;;;;;;;;;;6214100;23;20463;-84
2023/09/01 09:27:18;;;;;;;7.47;3.17;;;;;;;;;;6214301;23;20016;-83
2023/09/01 09:29:45;;;;;;;7.78;2.95;;;;;;;;;;6216046;23;20428;-83
2023/09/01 09:32:18;;;;;;;6.03;3.15;;;;;;;;;;6217065;23;20091;-84
2023/09/01 09:34:47;;;;;;;;;;;;;;;;;;6218793;23;20016;-84
2023/09/01 09:37:20;;;;;;;5.45;3.08;;;;;;;;;;6191942;23;19922;-84
2023/09/01 09:39:46;;;;;;;4.28;3.08;;;;;;;;;;6215906;23;20349;-84
2023/09/01 09:42:12;;;;;;;6.15;3.42;;;;;;;;;;6215011;23;20360;-84
2023/09/01 09:44:38;;;;;;;4.53;3.05;;;;;;;;;;6217557;23;20020;-84
2023/09/01 09:47:10;;;;;;;4.38;2.97;;;;;;;;;;6191392;23;20013;-83
2023/09/01 09:49:38;;;;;;;6.68;2.97;;;;;;;;;;6216723;23;20021;-84
2023/09/01 09:52:06;;;;;;;5.63;3.22;;;;;;;;;;6216060;23;20023;-84
2023/09/01 09:54:36;;;;;;;5.15;2.60;;;;;;;;;;6190534;23;20448;-85
2023/09/01 09:57:03;;;;;;;4.80;2.35;;;;;;;;;;6192852;23;20478;-85
2023/09/01 09:59:56;;;;;;;5.18;2.72;;;;;;;;;;6219636;23;20020;-84
2023/09/01 10:02:30;;;;;;;3.08;2.53;;;;;;;;;;6188454;23;20416;-84
2023/09/01 10:04:58;;;;;;;4.57;2.92;;;;;;;;;;6217983;23;20052;-84
2023/09/01 10:07:24;;;;;;;4.68;2.78;;;;;;;;;;6218367;23;20017;-84
2023/09/01 10:09:54;;;;;;;3.63;2.58;;;;;;;;;;6217111;23;20073;-85
2023/09/01 10:12:20;;;;;;;3.78;2.80;;;;;;;;;;6191419;23;20023;-84
2023/09/01 10:14:48;;;;;;;6.13;3.40;;;;;;;;;;6191999;23;20017;-84
2023/09/01 10:17:15;;;;;;;4.20;2.60;;;;;;;;;;6217491;23;20024;-84
2023/09/01 10:19:42;;;;;;;2.72;2.00;;;;;;;;;;6195627;23;20070;-84
2023/09/01 10:22:11;;;;;;;4.38;2.40;;;;;;;;;;6227399;23;20071;-85
2023/09/01 10:24:38;;;;;;;4.72;2.40;;;;;;;;;;6197342;23;20027;-85
2023/09/01 10:27:07;;;;;;;3.08;2.30;;;;;;;;;;6195339;23;20013;-84
2023/09/01 10:29:37;;;;;;;3.78;2.92;;;;;;;;;;6220899;23;20025;-84
2023/09/01 10:32:19;;;;;;;3.40;2.30;;;;;;;;;;6224184;23;20336;-84
2023/09/01 10:34:52;;;;;;;3.15;2.03;;;;;;;;;;6222300;23;20013;-84
2023/09/01 10:37:30;;;;;;;4.15;2.50;;;;;;;;;;6220014;23;20017;-85
2023/09/01 10:39:56;;;;;;;4.43;2.40;;;;;;;;;;6219152;23;20019;-85
2023/09/01 10:42:41;;;;;;;3.25;2.50;;;;;;;;;;6218719;23;20031;-85
2023/09/01 10:45:07;;;;;;;2.97;2.40;;;;;;;;;;6218685;23;20127;-85
2023/09/01 10:47:33;;;;;;;3.22;2.45;;;;;;;;;;6216052;23;20024;-85
2023/09/01 10:50:04;;;;;;;2.90;2.03;;;;;;;;;;6191076;23;20091;-85
2023/09/01 10:52:31;;;;;;;4.32;2.28;;;;;;;;;;6190711;23;20017;-85
2023/09/01 10:55:02;;;;;;;4.72;2.03;;;;;;;;;;6190438;23;20027;-85
2023/09/01 10:57:45;;;;;;;2.97;2.20;;;;;;;;;;6216003;23;20070;-84
2023/09/01 11:00:30;;;;;;;3.58;2.00;;;;;;;;;;6215983;23;20020;-85
2023/09/01 11:03:15;;;;;;;3.38;2.25;;;;;;;;;;6215946;23;20063;-85
2023/09/01 11:05:41;;;;;;;2.10;1.90;;;;;;;;;;6217059;23;20463;-85
2023/09/01 11:08:15;;;;;;;3.88;1.90;;;;;;;;;;6214693;23;20024;-85
2023/09/01 11:10:42;;;;;;;3.22;1.90;;;;;;;;;;6215661;23;20460;-85
2023/09/01 11:13:18;;;;;;;2.83;2.00;;;;;;;;;;6215487;23;20048;-84
2023/09/01 11:15:48;;;;;;;3.15;2.30;;;;;;;;;;6214690;23;20021;-85
2023/09/01 11:18:21;;;;;;;2.88;2.35;;;;;;;;;;6189515;23;20032;-85
2023/09/01 11:20:47;;;;;;;2.60;2.10;;;;;;;;;;6214977;23;20017;-85
2023/09/01 11:23:24;;;;;;;4.15;2.65;;;;;;;;;;6190271;23;20021;-85
2023/09/01 11:25:56;;;;;;;5.45;2.60;;;;;;;;;;6189482;23;20012;-85
2023/09/01 11:28:23;;;;;;;3.53;2.40;;;;;;;;;;6216380;23;20028;-85
2023/09/01 11:30:53;;;;;;;4.30;2.63;;;;;;;;;;6189254;23;20039;-84
2023/09/01 11:33:20;;;;;;;3.25;2.70;;;;;;;;;;6214772;23;20024;-85
2023/09/01 11:35:46;;;;;;;4.65;2.90;;;;;;;;;;6216524;23;20349;-84
2023/09/01 11:38:19;;;;;;;3.78;2.50;;;;;;;;;;6214238;23;20020;-85
2023/09/01 11:40:46;;;;;;;3.88;2.55;;;;;;;;;;6189062;23;20052;-84
2023/09/01 11:43:13;;;;;;;5.53;2.72;;;;;;;;;;6214241;23;20486;-85
2023/09/01 11:45:46;;;;;;;3.50;2.78;;;;;;;;;;6189486;23;20179;-85
2023/09/01 11:48:12;;;;;;;3.42;2.40;;;;;;;;;;6183209;23;20037;-85
2023/09/01 11:50:44;;;;;;;5.18;2.88;;;;;;;;;;6214284;23;20098;-85
2023/09/01 11:53:10;;;;;;;3.97;2.60;;;;;;;;;;6214065;23;20024;-85
2023/09/01 11:55:43;;;;;;;4.32;2.50;;;;;;;;;;6214003;23;20359;-84
2023/09/01 11:58:09;;;;;;;6.88;2.70;;;;;;;;;;6189109;23;20047;-85
2023/09/01 12:00:36;;;;;;;5.38;2.65;;;;;;;;;;6191057;23;20444;-85
2023/09/01 12:03:06;;;;;;;3.95;2.30;;;;;;;;;;6221163;23;20380;-85
2023/09/01 12:05:36;;;;;;;3.60;2.40;;;;;;;;;;6192013;23;20279;-85
2023/09/01 12:08:03;;;;;;;4.50;2.50;;;;;;;;;;6216064;23;20078;-85
2023/09/01 12:10:29;;;;;;;4.15;2.80;;;;;;;;;;6189414;23;20039;-85
2023/09/01 12:13:11;;;;;;;3.22;2.50;;;;;;;;;;6215837;23;20387;-85
2023/09/01 12:15:56;;;;;;;4.70;2.50;;;;;;;;;;6215224;23;20074;-85
2023/09/01 12:18:29;;;;;;;3.83;2.60;;;;;;;;;;6214058;23;20025;-85
2023/09/01 12:20:56;;;;;;;4.72;2.90;;;;;;;;;;6215543;23;20020;-85
2023/09/01 12:23:32;;;;;;;4.78;3.10;;;;;;;;;;6213923;23;20012;-85
2023/09/01 12:26:01;;;;;;;6.68;2.70;;;;;;;;;;6213518;23;20452;-84
2023/09/01 12:28:28;;;;;;;3.45;2.28;;;;;;;;;;6212532;23;20017;-86
2023/09/01 12:30:55;;;;;;;5.03;2.67;;;;;;;;;;6215749;23;20027;-86
2023/09/01 12:33:21;;;;;;;5.80;3.15;;;;;;;;;;6188950;23;20139;-84
2023/09/01 12:35:47;;;;;;;6.97;2.88;;;;;;;;;;6194021;23;20023;-84
2023/09/01 12:38:13;;;;;;;5.22;2.55;;;;;;;;;;6198050;23;20023;-84
2023/09/01 12:40:39;;;;;;;5.97;3.30;;;;;;;;;;6217368;23;20043;-85
2023/09/01 12:43:05;;;;;;;4.38;2.70;;;;;;;;;;6189469;23;20406;-85
2023/09/01 12:45:32;;;;;;;4.47;2.80;;;;;;;;;;6189661;23;20095;-84
2023/09/01 12:48:01;;;;;;;5.00;3.00;;;;;;;;;;6214717;23;20095;-84
2023/09/01 12:50:28;;;;;;;5.10;3.25;;;;;;;;;;6216010;23;20020;-84
2023/09/01 12:52:55;;;;;;;6.32;3.40;;;;;;;;;;6214082;23;20506;-84
2023/09/01 12:55:22;;;;;;;5.53;3.15;;;;;;;;;;6213939;23;20313;-84
2023/09/01 12:57:48;;;;;;;3.67;2.60;;;;;;;;;;6214305;23;20026;-84
2023/09/01 13:00:15;;;;;;;5.22;3.28;;;;;;;;;;6189006;23;20016;-84
2023/09/01 13:02:41;;;;;;;5.35;3.13;;;;;;;;;;6213945;23;20020;-84
2023/09/01 13:05:07;;;;;;;6.13;3.40;;;;;;;;;;6214622;23;20016;-83
2023/09/01 13:07:33;;;;;;;6.35;3.65;;;;;;;;;;6214842;23;20031;-84
2023/09/01 13:09:59;;;;;;;5.65;3.25;;;;;;;;;;6215517;23;20088;-84
2023/09/01 13:12:25;;;;;;;6.68;3.40;;;;;;;;;;6214407;23;20027;-84
2023/09/01 13:14:52;;;;;;;5.05;3.55;;;;;;;;;;6214031;23;20071;-84
2023/09/01 13:17:18;;;;;;;8.15;3.95;;;;;;;;;;6212770;23;20123;-84
2023/09/01 13:19:44;;;;;;;4.93;3.40;;;;;;;;;;6215532;23;20012;-84
2023/09/01 13:22:10;;;;;;;7.43;3.85;;;;;;;;;;6188638;23;20024;-85
2023/09/01 13:24:36;;;;;;;6.07;4.03;;;;;;;;;;6189143;23;20024;-84
2023/09/01 13:27:02;;;;;;;6.82;4.18;;;;;;;;;;6189074;23;20024;-84
2023/09/01 13:29:28;;;;;;;6.80;3.65;;;;;;;;;;6193885;23;20405;-83
2023/09/01 13:31:54;;;;;;;4.72;3.67;;;;;;;;;;6219757;23;20012;-82
2023/09/01 13:34:21;;;;;;;5.82;3.72;;;;;;;;;;6220608;23;20016;-82
2023/09/01 13:36:47;;;;;;;11.27;3.95;;;;;;;;;;6220920;23;20016;-82
2023/09/01 13:39:13;;;;;;;7.40;4.15;;;;;;;;;;6220601;23;20444;-82
2023/09/01 13:41:39;;;;;;;6.50;4.00;;;;;;;;;;6201432;23;20017;-82
2023/09/01 13:44:05;;;;;;;7.28;4.55;;;;;;;;;;6222915;23;20065;-82
2023/09/01 13:46:31;;;;;;;6.13;4.10;;;;;;;;;;6227322;23;20032;-83
2023/09/01 13:48:58;;;;;;;6.93;4.03;;;;;;;;;;6202139;23;20019;-82
2023/09/01 13:51:25;;;;;;;8.05;4.03;;;;;;;;;;6198995;23;20020;-82
2023/09/01 13:53:52;;;;;;;7.15;4.22;;;;;;;;;;6225088;23;20040;-82
2023/09/01 13:56:18;;;;;;;7.25;4.85;;;;;;;;;;6201977;23;20396;-82
2023/09/01 13:58:44;;;;;;;6.40;4.35;;;;;;;;;;6199770;23;20013;-82
2023/09/01 14:01:10;;;;;;;7.15;4.20;;;;;;;;;;6225437;23;20012;-82
2023/09/01 14:03:37;;;;;;;5.80;3.90;;;;;;;;;;6223664;23;20023;-82
2023/09/01 14:06:03;;;;;;;9.38;4.57;;;;;;;;;;6196748;23;20096;-83
2023/09/01 14:08:29;;;;;;;6.63;4.28;;;;;;;;;;6196556;23;20013;-83
2023/09/01 14:10:56;;;;;;;6.25;3.85;;;;;;;;;;6196497;23;20017;-83
2023/09/01 14:13:23;;;;;;;6.88;4.10;;;;;;;;;;6220711;23;20023;-83
2023/09/01 14:15:50;;;;;;;8.45;4.55;;;;;;;;;;6194334;23;20020;-83
2023/09/01 14:18:16;;;;;;;7.43;4.30;;;;;;;;;;6222424;23;20032;-83
2023/09/01 14:20:43;;;;;;;5.75;4.40;;;;;;;;;;6220416;23;20027;-83
2023/09/01 14:23:09;;;;;;;7.18;3.78;;;;;;;;;;6194436;23;20024;-83
2023/09/01 14:25:35;;;;;;;6.95;4.25;;;;;;;;;;6222627;23;20027;-83
2023/09/01 14:28:02;;;;;;;7.10;3.65;;;;;;;;;;6194471;23;20016;-83
2023/09/01 14:30:28;;;;;;;5.50;3.67;;;;;;;;;;6218544;23;20024;-83
2023/09/01 14:32:55;;;;;;;6.65;4.13;;;;;;;;;;6194808;23;20317;-83
2023/09/01 14:35:21;;;;;;;7.13;4.25;;;;;;;;;;6190903;23;20024;-83
2023/09/01 14:37:47;;;;;;;5.18;3.78;;;;;;;;;;6189187;23;20019;-83
2023/09/01 14:40:14;;;;;;;5.72;3.92;;;;;;;;;;6218143;23;20021;-83
2023/09/01 14:42:45;;;;;;;5.25;4.13;;;;;;;;;;6227519;23;20036;-83
2023/09/01 14:45:11;;;;;;;8.32;3.70;;;;;;;;;;6210953;23;20047;-84